Time;durP1;ratioP1;P1;durP2;ratioP2;P2;SDS_P1;SDS_P2;PMS_P1;PMS_P2;Temp;Humidity;BMP_temperature;BMP_pressure;BME280_temperature;BME280_humidity;BME280_pressure;Samples;Min_cycle;Max_cycle;Signal;HPM_P1;HPM_P2
2021/08/27 00:01:33;;;;;;;3.70;1.88;;;12.20;99.90;;;;;;4962129;28;20035;-48
2021/08/27 00:03:58;;;;;;;3.65;1.20;;;12.10;99.90;;;;;;4956412;28;20027;-47
2021/08/27 00:06:24;;;;;;;3.30;1.45;;;12.10;99.90;;;;;;4958806;28;20519;-49
2021/08/27 00:08:49;;;;;;;4.68;1.30;;;12.10;99.90;;;;;;4962191;28;20011;-48
2021/08/27 00:11:15;;;;;;;5.45;1.65;;;12.10;99.90;;;;;;4962868;28;20552;-47
2021/08/27 00:13:41;;;;;;;4.90;1.40;;;12.10;99.90;;;;;;4963840;28;20102;-48
2021/08/27 00:16:07;;;;;;;2.97;1.27;;;12.00;99.90;;;;;;4962312;28;20098;-47
2021/08/27 00:18:33;;;;;;;1.85;1.38;;;12.00;99.90;;;;;;4963317;28;20438;-47
2021/08/27 00:20:58;;;;;;;6.40;1.73;;;12.00;99.90;;;;;;4962569;28;20494;-48
2021/08/27 00:23:25;;;;;;;6.43;2.10;;;11.90;99.90;;;;;;4963122;28;20023;-49
2021/08/27 00:25:50;;;;;;;4.05;1.60;;;11.90;99.90;;;;;;4963403;28;20018;-48
2021/08/27 00:28:16;;;;;;;3.85;1.55;;;11.90;99.90;;;;;;4957429;28;20350;-50
2021/08/27 00:30:42;;;;;;;3.33;1.55;;;11.90;99.90;;;;;;4963363;28;20023;-49
2021/08/27 00:33:08;;;;;;;3.15;1.25;;;11.90;99.90;;;;;;4954575;28;20037;-48
2021/08/27 00:35:33;;;;;;;6.03;1.63;;;11.90;99.90;;;;;;4960424;28;20106;-48
2021/08/27 00:37:59;;;;;;;3.63;2.00;;;11.80;99.90;;;;;;4957287;28;20026;-47
2021/08/27 00:40:24;;;;;;;2.42;1.58;;;11.80;99.90;;;;;;4962419;28;20503;-47
2021/08/27 00:42:50;;;;;;;2.03;1.83;;;11.80;99.90;;;;;;4956762;28;20050;-49
2021/08/27 00:45:16;;;;;;;5.93;1.60;;;11.80;99.90;;;;;;4961594;28;20098;-48
2021/08/27 00:47:41;;;;;;;3.55;1.85;;;11.70;99.90;;;;;;4963103;28;20658;-46
2021/08/27 00:50:08;;;;;;;3.15;1.58;;;11.70;99.90;;;;;;4960793;28;20035;-48
2021/08/27 00:52:40;;;;;;;3.42;1.70;;;11.70;99.90;;;;;;4962699;28;20026;-52
2021/08/27 00:55:06;;;;;;;2.67;1.67;;;11.70;99.90;;;;;;4957585;28;20033;-51
2021/08/27 00:57:32;;;;;;;5.25;1.67;;;11.70;99.90;;;;;;4962572;28;20033;-48
2021/08/27 00:59:58;;;;;;;6.22;2.38;;;11.60;99.90;;;;;;4960155;28;20034;-48
2021/08/27 01:02:24;;;;;;;3.80;2.10;;;11.60;99.90;;;;;;4961060;28;20026;-48
2021/08/27 01:04:52;;;;;;;2.05;1.55;;;11.60;99.90;;;;;;4960909;28;20539;-47
2021/08/27 01:07:30;;;;;;;3.42;1.60;;;11.60;99.90;;;;;;4954839;28;20102;-47
2021/08/27 01:10:03;;;;;;;2.42;2.20;;;11.60;99.90;;;;;;4965537;28;20069;-47
2021/08/27 01:12:57;;;;;;;4.10;1.35;;;11.60;99.90;;;;;;4958980;28;20027;-48
2021/08/27 01:15:48;;;;;;;5.18;1.42;;;11.60;99.90;;;;;;4952288;28;20031;-48
2021/08/27 01:18:20;;;;;;;2.78;1.48;;;11.60;99.90;;;;;;4951051;28;20032;-49
2021/08/27 01:21:09;;;;;;;4.75;1.42;;;11.50;99.90;;;;;;4963521;28;20027;-48
2021/08/27 01:23:43;;;;;;;4.47;1.88;;;11.50;99.90;;;;;;4952846;28;20031;-47
2021/08/27 01:26:09;;;;;;;3.17;1.83;;;11.50;99.90;;;;;;4953741;28;20481;-50
2021/08/27 01:28:44;;;;;;;4.45;1.48;;;11.50;99.90;;;;;;4958058;28;20034;-49
2021/08/27 01:31:25;;;;;;;2.42;1.80;;;11.50;99.90;;;;;;4959802;28;20034;-49
2021/08/27 01:34:20;;;;;;;3.45;1.52;;;11.50;99.90;;;;;;4955047;28;20031;-48
2021/08/27 01:36:46;;;;;;;4.78;2.00;;;11.50;99.90;;;;;;4955854;28;20598;-48
2021/08/27 01:39:15;;;;;;;4.30;1.67;;;11.50;99.90;;;;;;4954556;28;20027;-48
2021/08/27 01:41:44;;;;;;;2.33;1.73;;;11.50;99.90;;;;;;4961145;28;20700;-47
2021/08/27 01:44:11;;;;;;;5.82;1.90;;;11.40;99.90;;;;;;4959365;28;20469;-51
2021/08/27 01:46:41;;;;;;;3.60;1.67;;;11.50;99.90;;;;;;4957859;28;20020;-50
2021/08/27 01:49:08;;;;;;;3.17;1.95;;;11.50;99.90;;;;;;4966024;28;20105;-48
2021/08/27 01:51:35;;;;;;;2.25;1.67;;;11.50;99.90;;;;;;4956888;28;20486;-47
2021/08/27 01:54:02;;;;;;;3.03;1.65;;;11.50;99.90;;;;;;4958992;28;20027;-47
2021/08/27 01:56:28;;;;;;;5.10;1.52;;;11.50;99.90;;;;;;4963191;28;20023;-51
2021/08/27 01:58:57;;;;;;;2.38;1.65;;;11.50;99.90;;;;;;4958120;28;20102;-49
2021/08/27 02:01:24;;;;;;;3.83;1.65;;;11.50;99.90;;;;;;4957482;28;20051;-50
2021/08/27 02:03:52;;;;;;;3.95;1.40;;;11.50;99.90;;;;;;4957963;28;20019;-50
2021/08/27 02:06:18;;;;;;;2.88;1.33;;;11.50;99.90;;;;;;4951315;28;20055;-47
2021/08/27 02:08:45;;;;;;;14.30;1.98;;;11.50;99.90;;;;;;4960808;28;20074;-49
2021/08/27 02:11:11;;;;;;;5.90;1.60;;;11.60;99.90;;;;;;4960472;28;20115;-47
2021/08/27 02:13:37;;;;;;;3.47;1.90;;;11.60;99.90;;;;;;4962358;28;20022;-49
2021/08/27 02:16:06;;;;;;;3.55;1.90;;;11.60;99.90;;;;;;4957912;28;20569;-49
2021/08/27 02:18:32;;;;;;;2.05;1.40;;;11.70;99.90;;;;;;4958293;28;20030;-51
2021/08/27 02:21:00;;;;;;;4.20;1.70;;;11.70;99.90;;;;;;4957890;28;20023;-47
2021/08/27 02:23:27;;;;;;;7.13;1.60;;;11.70;99.90;;;;;;4961579;28;20045;-50
2021/08/27 02:25:53;;;;;;;2.35;1.67;;;11.70;99.90;;;;;;4959571;28;20058;-46
2021/08/27 02:28:21;;;;;;;3.22;1.80;;;11.80;99.90;;;;;;4957635;28;20443;-47
2021/08/27 02:30:48;;;;;;;3.67;1.85;;;11.80;99.90;;;;;;4950981;28;20016;-51
2021/08/27 02:33:15;;;;;;;2.63;1.30;;;11.80;99.90;;;;;;4960456;28;20159;-47
2021/08/27 02:35:41;;;;;;;6.72;1.75;;;11.80;99.90;;;;;;4960326;28;20045;-50
2021/08/27 02:38:12;;;;;;;4.10;1.90;;;11.90;99.90;;;;;;4959231;28;20118;-47
2021/08/27 02:40:38;;;;;;;4.85;1.67;;;11.90;99.90;;;;;;4960936;28;20026;-49
2021/08/27 02:43:03;;;;;;;7.65;2.17;;;11.90;99.90;;;;;;4948304;28;20478;-48
2021/08/27 02:45:29;;;;;;;1.23;1.10;;;11.90;99.90;;;;;;4960539;28;20126;-50
2021/08/27 02:47:54;;;;;;;2.72;1.65;;;12.00;99.90;;;;;;4958763;28;20433;-48
2021/08/27 02:50:20;;;;;;;2.78;1.80;;;12.00;99.90;;;;;;4948282;28;20026;-49
2021/08/27 02:52:54;;;;;;;3.80;1.85;;;12.00;99.90;;;;;;4951521;28;20027;-47
2021/08/27 02:55:35;;;;;;;2.72;1.52;;;12.10;99.90;;;;;;4960764;28;20031;-50
2021/08/27 02:58:23;;;;;;;4.18;1.70;;;12.10;99.90;;;;;;4960115;28;20034;-47
2021/08/27 03:00:55;;;;;;;7.45;1.73;;;12.00;99.90;;;;;;4961236;28;20031;-49
2021/08/27 03:03:24;;;;;;;7.10;2.28;;;12.10;99.90;;;;;;4954805;28;20019;-50
2021/08/27 03:05:54;;;;;;;2.75;1.40;;;12.10;99.90;;;;;;4962649;28;20082;-49
2021/08/27 03:08:23;;;;;;;5.53;1.70;;;12.10;99.90;;;;;;4957710;28;20022;-47
2021/08/27 03:11:14;;;;;;;3.75;1.58;;;12.10;99.90;;;;;;4964045;28;20026;-47
2021/08/27 03:13:55;;;;;;;2.75;1.30;;;12.20;99.90;;;;;;4956114;28;20011;-47
2021/08/27 03:16:23;;;;;;;10.15;2.55;;;12.20;99.90;;;;;;4944662;28;20035;-47
2021/08/27 03:18:54;;;;;;;2.75;1.60;;;12.20;99.90;;;;;;4956127;28;20035;-48
2021/08/27 03:21:26;;;;;;;4.40;1.60;;;12.30;99.90;;;;;;4960913;28;20030;-52
2021/08/27 03:23:57;;;;;;;2.72;1.40;;;12.30;99.90;;;;;;4959678;28;20023;-47
2021/08/27 03:26:27;;;;;;;1.85;1.25;;;12.30;99.90;;;;;;4946763;28;20093;-52
2021/08/27 03:28:59;;;;;;;4.53;1.85;;;12.30;99.90;;;;;;4949385;28;20386;-48
2021/08/27 03:31:27;;;;;;;4.40;1.85;;;12.30;99.90;;;;;;4959031;28;20331;-50
2021/08/27 03:33:55;;;;;;;4.10;1.67;;;12.30;99.90;;;;;;4962849;28;20580;-47
2021/08/27 03:36:31;;;;;;;4.95;1.58;;;12.30;99.90;;;;;;4951197;28;20097;-45
2021/08/27 03:38:59;;;;;;;5.28;2.00;;;12.30;99.90;;;;;;4962218;28;20046;-50
2021/08/27 03:41:27;;;;;;;6.50;1.60;;;12.30;99.90;;;;;;4954719;28;20031;-50
2021/08/27 03:43:54;;;;;;;5.78;2.08;;;12.30;99.90;;;;;;4964221;28;20022;-48
2021/08/27 03:46:20;;;;;;;3.25;1.90;;;12.40;99.90;;;;;;4957733;28;20026;-47
2021/08/27 03:48:51;;;;;;;7.20;2.03;;;12.40;99.90;;;;;;4965428;28;20102;-47
2021/08/27 03:51:18;;;;;;;5.15;2.28;;;12.30;99.90;;;;;;4960621;28;20508;-48
2021/08/27 03:53:45;;;;;;;6.85;1.50;;;12.30;99.90;;;;;;4965682;28;20027;-47
2021/08/27 03:56:13;;;;;;;2.45;1.40;;;12.40;99.90;;;;;;4951930;28;20588;-49
2021/08/27 03:58:41;;;;;;;3.58;1.50;;;12.40;99.90;;;;;;4965674;28;20506;-51
2021/08/27 04:01:06;;;;;;;4.32;1.73;;;12.40;99.90;;;;;;4962280;28;20729;-47
2021/08/27 04:03:34;;;;;;;4.38;1.75;;;12.40;99.90;;;;;;4959919;28;20042;-48
2021/08/27 04:06:03;;;;;;;6.25;1.90;;;12.40;99.90;;;;;;4965935;28;20019;-47
2021/08/27 04:08:30;;;;;;;9.52;1.50;;;12.40;99.90;;;;;;4959039;28;20016;-48
2021/08/27 04:10:56;;;;;;;4.55;1.55;;;12.40;99.90;;;;;;4967246;28;20019;-47
2021/08/27 04:13:21;;;;;;;3.40;1.55;;;12.40;99.90;;;;;;4959919;28;20035;-47
2021/08/27 04:15:47;;;;;;;4.70;1.63;;;12.50;99.90;;;;;;4964489;28;20019;-47
2021/08/27 04:18:12;;;;;;;2.38;1.50;;;12.40;99.90;;;;;;4961089;28;20103;-50
2021/08/27 04:20:38;;;;;;;3.42;1.63;;;12.50;99.90;;;;;;4959969;28;20023;-48
2021/08/27 04:23:03;;;;;;;4.05;1.45;;;12.50;99.90;;;;;;4965833;28;20105;-47
2021/08/27 04:25:29;;;;;;;3.85;1.45;;;12.50;99.90;;;;;;4959506;28;20034;-45
2021/08/27 04:27:55;;;;;;;3.55;1.88;;;12.50;99.90;;;;;;4961032;28;20019;-47
2021/08/27 04:30:21;;;;;;;3.15;1.42;;;12.50;99.90;;;;;;4964093;28;20048;-47
2021/08/27 04:32:46;;;;;;;2.58;1.67;;;12.50;99.90;;;;;;4966610;28;20031;-48
2021/08/27 04:35:12;;;;;;;4.78;1.90;;;12.60;99.90;;;;;;4959571;28;20125;-47
2021/08/27 04:37:37;;;;;;;2.42;1.55;;;12.50;99.90;;;;;;4959646;28;20039;-47
2021/08/27 04:40:03;;;;;;;3.42;1.30;;;12.60;99.90;;;;;;4964882;28;20066;-47
2021/08/27 04:42:29;;;;;;;4.82;2.25;;;12.60;99.90;;;;;;4958951;28;20027;-49
2021/08/27 04:44:55;;;;;;;4.07;1.65;;;12.60;99.90;;;;;;4959728;28;20023;-47
2021/08/27 04:47:20;;;;;;;2.40;1.13;;;12.60;99.90;;;;;;4963268;28;20346;-48
2021/08/27 04:49:46;;;;;;;2.42;1.73;;;12.60;99.90;;;;;;4961609;28;20027;-49
2021/08/27 04:52:12;;;;;;;2.60;1.17;;;12.70;99.90;;;;;;4952620;28;20024;-47
2021/08/27 04:54:37;;;;;;;4.80;1.73;;;12.70;99.90;;;;;;4956374;28;20038;-46
2021/08/27 04:57:03;;;;;;;3.97;1.70;;;12.70;99.90;;;;;;4960605;28;20110;-47
2021/08/27 04:59:29;;;;;;;2.25;1.35;;;12.70;99.90;;;;;;4965653;28;20023;-48
2021/08/27 05:01:55;;;;;;;4.15;1.65;;;12.70;99.90;;;;;;4959501;28;20094;-51
2021/08/27 05:04:20;;;;;;;5.68;1.35;;;12.80;99.90;;;;;;4947149;28;20027;-48
2021/08/27 05:06:46;;;;;;;3.28;1.70;;;12.80;99.90;;;;;;4960847;28;20024;-47
2021/08/27 05:09:12;;;;;;;4.72;1.50;;;12.80;99.90;;;;;;4961175;28;20027;-48
2021/08/27 05:11:38;;;;;;;3.80;1.65;;;12.80;99.90;;;;;;4962872;28;20031;-48
2021/08/27 05:14:04;;;;;;;2.22;1.05;;;12.80;99.90;;;;;;4959986;28;20140;-50
2021/08/27 05:16:29;;;;;;;2.15;1.50;;;12.80;99.90;;;;;;4964864;28;20040;-48
2021/08/27 05:18:55;;;;;;;2.97;1.65;;;12.80;99.90;;;;;;4955937;28;20027;-48
2021/08/27 05:21:21;;;;;;;4.45;1.52;;;12.80;99.90;;;;;;4961771;28;20413;-48
2021/08/27 05:23:46;;;;;;;2.83;1.17;;;12.90;99.90;;;;;;4950821;28;20024;-47
2021/08/27 05:26:12;;;;;;;2.05;1.13;;;12.90;99.90;;;;;;4959504;28;20416;-47
2021/08/27 05:28:37;;;;;;;4.38;1.67;;;12.90;99.90;;;;;;4961448;28;20366;-51
2021/08/27 05:31:03;;;;;;;4.63;1.30;;;13.00;99.90;;;;;;4959733;28;20497;-47
2021/08/27 05:33:28;;;;;;;1.30;1.02;;;13.00;99.90;;;;;;4965149;28;20529;-50
2021/08/27 05:35:54;;;;;;;3.33;1.48;;;13.00;99.90;;;;;;4958181;28;20037;-48
2021/08/27 05:38:20;;;;;;;2.33;1.33;;;13.00;99.90;;;;;;4961662;28;20401;-51
2021/08/27 05:40:45;;;;;;;6.78;2.08;;;13.00;99.90;;;;;;4960858;28;20485;-47
2021/08/27 05:43:11;;;;;;;3.88;1.40;;;13.10;99.90;;;;;;4959472;28;20765;-48
2021/08/27 05:45:36;;;;;;;2.83;1.02;;;13.10;99.90;;;;;;4957528;28;20173;-48
2021/08/27 05:48:02;;;;;;;1.83;1.30;;;13.10;99.90;;;;;;4957877;28;20102;-48
2021/08/27 05:50:27;;;;;;;3.53;1.60;;;13.00;99.90;;;;;;5121394;23;20033;-45
2021/08/27 05:52:53;;;;;;;2.63;1.27;;;13.10;99.90;;;;;;4969118;28;20023;-47
2021/08/27 05:55:19;;;;;;;3.08;1.75;;;13.10;99.90;;;;;;4969033;28;20046;-45
2021/08/27 05:57:44;;;;;;;1.92;1.30;;;13.10;99.90;;;;;;4969859;28;20074;-49
2021/08/27 06:00:11;;;;;;;3.78;1.60;;;13.10;99.90;;;;;;4969724;28;20033;-49
2021/08/27 06:02:36;;;;;;;2.42;1.40;;;13.20;99.90;;;;;;4967008;28;20114;-49
2021/08/27 06:05:02;;;;;;;3.42;1.60;;;13.10;99.90;;;;;;4968943;28;20125;-51
2021/08/27 06:07:28;;;;;;;3.60;1.30;;;13.10;99.90;;;;;;4966076;28;20022;-50
2021/08/27 06:09:54;;;;;;;3.60;1.70;;;13.10;99.90;;;;;;4968448;28;20027;-46
2021/08/27 06:12:20;;;;;;;3.30;1.33;;;13.10;99.90;;;;;;4980108;28;20030;-45
2021/08/27 06:14:45;;;;;;;3.20;1.55;;;13.10;99.90;;;;;;4966189;28;20668;-47
2021/08/27 06:17:11;;;;;;;3.70;1.23;;;13.10;99.90;;;;;;4963536;28;20031;-47
2021/08/27 06:19:36;;;;;;;2.47;1.20;;;13.20;99.90;;;;;;4966613;28;20019;-51
2021/08/27 06:22:05;;;;;;;4.32;1.42;;;13.20;99.90;;;;;;4968551;28;20633;-49
2021/08/27 06:24:30;;;;;;;2.60;1.38;;;13.20;99.90;;;;;;4965314;28;20018;-46
2021/08/27 06:26:56;;;;;;;2.95;1.20;;;13.20;99.90;;;;;;4967813;28;20541;-47
2021/08/27 06:29:22;;;;;;;3.38;0.98;;;13.30;99.90;;;;;;4963765;28;20019;-45
2021/08/27 06:31:48;;;;;;;3.25;1.10;;;13.30;99.90;;;;;;4967687;28;20433;-46
2021/08/27 06:34:13;;;;;;;3.42;1.20;;;13.30;99.90;;;;;;4963927;28;20023;-48
2021/08/27 06:36:39;;;;;;;1.98;0.90;;;13.40;99.90;;;;;;4966663;28;20499;-45
2021/08/27 06:39:05;;;;;;;1.42;1.15;;;13.40;99.90;;;;;;4969217;28;20222;-47
2021/08/27 06:41:30;;;;;;;2.92;1.30;;;13.40;99.90;;;;;;4964412;28;20023;-48
2021/08/27 06:43:56;;;;;;;1.40;1.05;;;13.40;99.90;;;;;;4968025;28;20026;-49
2021/08/27 06:46:23;;;;;;;2.33;1.08;;;13.40;99.90;;;;;;4964856;28;20015;-49
2021/08/27 06:48:49;;;;;;;4.18;1.75;;;13.40;99.90;;;;;;4968780;28;20038;-49
2021/08/27 06:51:15;;;;;;;2.40;1.20;;;13.40;99.90;;;;;;4964414;28;20035;-50
2021/08/27 06:53:41;;;;;;;3.88;1.30;;;13.50;99.90;;;;;;4969135;28;20066;-49
2021/08/27 06:56:07;;;;;;;2.40;1.40;;;13.50;99.90;;;;;;4962999;28;20038;-46
2021/08/27 06:58:32;;;;;;;2.72;1.38;;;13.50;99.90;;;;;;4967955;28;20058;-49
2021/08/27 07:00:59;;;;;;;3.75;1.45;;;13.50;99.90;;;;;;4954670;28;20046;-48
2021/08/27 07:03:25;;;;;;;3.58;1.20;;;13.60;99.90;;;;;;4968897;28;20027;-49
2021/08/27 07:05:50;;;;;;;3.00;1.27;;;13.60;99.90;;;;;;4967736;28;20035;-51
2021/08/27 07:08:16;;;;;;;2.33;1.17;;;13.60;99.90;;;;;;4963800;28;20117;-50
2021/08/27 07:10:42;;;;;;;5.43;1.92;;;13.60;99.90;;;;;;4956917;28;20090;-46
2021/08/27 07:13:08;;;;;;;8.80;1.92;;;13.70;99.90;;;;;;4968462;28;20113;-46
2021/08/27 07:15:34;;;;;;;3.83;1.50;;;13.70;99.90;;;;;;4972107;28;20176;-48
2021/08/27 07:18:00;;;;;;;2.08;1.38;;;13.80;99.90;;;;;;4968632;28;20105;-47
2021/08/27 07:20:28;;;;;;;1.70;1.35;;;13.80;99.90;;;;;;4970205;28;20030;-48
2021/08/27 07:22:54;;;;;;;4.05;1.50;;;13.80;99.90;;;;;;4963778;28;20050;-49
2021/08/27 07:25:20;;;;;;;1.80;1.17;;;13.80;99.90;;;;;;4971090;28;20392;-47
2021/08/27 07:27:48;;;;;;;2.90;2.00;;;13.80;99.90;;;;;;4967666;28;20046;-48
2021/08/27 07:30:15;;;;;;;3.08;1.60;;;13.90;99.90;;;;;;4971250;28;20030;-47
2021/08/27 07:32:40;;;;;;;1.45;1.15;;;13.90;99.90;;;;;;4972264;28;20035;-48
2021/08/27 07:35:07;;;;;;;2.20;1.50;;;13.90;99.90;;;;;;4968989;28;20097;-49
2021/08/27 07:37:33;;;;;;;5.13;1.80;;;14.00;99.90;;;;;;4972395;28;20030;-47
2021/08/27 07:39:59;;;;;;;2.15;1.30;;;14.00;99.90;;;;;;4972388;28;20027;-51
2021/08/27 07:42:24;;;;;;;1.35;1.25;;;14.00;99.90;;;;;;4971359;28;20409;-47
2021/08/27 07:44:50;;;;;;;2.13;1.20;;;14.10;99.90;;;;;;4969635;28;20023;-50
2021/08/27 07:47:15;;;;;;;1.13;1.00;;;14.10;99.90;;;;;;4971721;28;20080;-51
2021/08/27 07:49:41;;;;;;;1.58;1.00;;;14.20;99.90;;;;;;4967611;28;20026;-49
2021/08/27 07:52:07;;;;;;;1.92;1.10;;;14.20;99.90;;;;;;4971075;28;20512;-49
2021/08/27 07:54:32;;;;;;;1.20;1.10;;;14.30;99.90;;;;;;4967459;28;20019;-49
2021/08/27 07:56:58;;;;;;;1.92;1.27;;;14.30;99.90;;;;;;4970473;28;20405;-48
2021/08/27 07:59:24;;;;;;;2.10;0.90;;;14.40;99.90;;;;;;4968478;28;20058;-49
2021/08/27 08:01:50;;;;;;;1.83;1.25;;;14.50;99.90;;;;;;4967962;28;20034;-47
2021/08/27 08:04:16;;;;;;;1.67;1.10;;;14.50;99.90;;;;;;4971700;28;20027;-50
2021/08/27 08:06:42;;;;;;;2.47;1.17;;;14.60;99.90;;;;;;4967752;28;20497;-47
2021/08/27 08:09:07;;;;;;;3.25;1.35;;;14.70;99.90;;;;;;4971000;28;20437;-47
2021/08/27 08:11:34;;;;;;;2.00;0.98;;;14.70;99.90;;;;;;4967471;28;20509;-47
2021/08/27 08:14:00;;;;;;;1.08;0.98;;;14.80;99.90;;;;;;4970141;28;20026;-48
2021/08/27 08:16:26;;;;;;;1.10;1.00;;;14.90;99.90;;;;;;4967664;28;20553;-48
2021/08/27 08:18:52;;;;;;;1.10;1.00;;;14.90;99.90;;;;;;4967656;28;20026;-48
2021/08/27 08:21:22;;;;;;;5.32;1.48;;;15.00;99.90;;;;;;4971113;28;20034;-47
2021/08/27 08:23:52;;;;;;;1.23;1.00;;;15.00;99.90;;;;;;4968092;28;20041;-48
2021/08/27 08:26:20;;;;;;;0.88;0.73;;;15.00;99.90;;;;;;4969898;28;20047;-49
2021/08/27 08:28:49;;;;;;;1.85;0.95;;;15.00;99.90;;;;;;4966433;28;20015;-49
2021/08/27 08:31:22;;;;;;;1.80;0.70;;;15.00;99.90;;;;;;4969947;28;20026;-50
2021/08/27 08:33:50;;;;;;;2.30;0.93;;;15.00;99.90;;;;;;4965263;28;20031;-49
2021/08/27 08:36:16;;;;;;;1.50;0.70;;;15.10;99.90;;;;;;4967623;28;20042;-47
2021/08/27 08:38:43;;;;;;;2.42;0.90;;;15.30;99.90;;;;;;4970292;28;20082;-48
2021/08/27 08:41:08;;;;;;;1.77;1.02;;;15.40;99.90;;;;;;4967412;28;20061;-48
2021/08/27 08:43:34;;;;;;;1.67;1.30;;;15.50;99.90;;;;;;4969671;28;20389;-47
2021/08/27 08:46:00;;;;;;;2.55;1.30;;;15.60;99.90;;;;;;4968372;28;20027;-47
2021/08/27 08:48:27;;;;;;;2.97;1.38;;;15.70;99.90;;;;;;4971422;28;20046;-49
2021/08/27 08:50:54;;;;;;;1.33;0.98;;;15.80;99.90;;;;;;4967604;28;20656;-47
2021/08/27 08:53:22;;;;;;;1.02;0.77;;;15.90;99.90;;;;;;4969947;28;20026;-48
2021/08/27 08:55:48;;;;;;;1.63;1.00;;;16.00;99.90;;;;;;4966701;28;20097;-48
2021/08/27 08:58:14;;;;;;;1.17;0.85;;;16.10;99.90;;;;;;4969178;28;20502;-47
2021/08/27 09:00:39;;;;;;;0.65;0.65;;;16.10;99.90;;;;;;4965737;28;20113;-50
2021/08/27 09:03:05;;;;;;;0.60;0.60;;;16.10;99.90;;;;;;4967301;28;20118;-47
2021/08/27 09:05:31;;;;;;;2.75;0.93;;;16.10;99.90;;;;;;4970886;28;20386;-50
2021/08/27 09:07:57;;;;;;;6.30;0.80;;;16.10;99.90;;;;;;4966103;28;20090;-47
2021/08/27 09:10:23;;;;;;;0.60;0.52;;;16.20;99.90;;;;;;4969416;28;20481;-47
2021/08/27 09:12:50;;;;;;;1.55;0.70;;;16.20;99.90;;;;;;4977535;28;20082;-48
2021/08/27 09:15:20;;;;;;;1.73;0.98;;;16.10;99.90;;;;;;4970022;28;20023;-47
2021/08/27 09:17:48;;;;;;;1.80;0.82;;;16.10;99.90;;;;;;4965044;28;20023;-48
2021/08/27 09:20:22;;;;;;;2.05;0.95;;;16.10;99.90;;;;;;4966080;28;20033;-49
2021/08/27 09:22:55;;;;;;;2.05;0.85;;;16.10;99.90;;;;;;4969861;28;20077;-49
2021/08/27 09:25:32;;;;;;;0.85;0.77;;;16.10;99.90;;;;;;4964786;28;20039;-54
2021/08/27 09:28:08;;;;;;;3.30;1.13;;;16.20;99.90;;;;;;4964074;28;20427;-52
2021/08/27 09:30:58;;;;;;;1.30;0.70;;;16.40;99.90;;;;;;4967522;28;20015;-49
2021/08/27 09:33:30;;;;;;;0.88;0.82;;;16.70;99.90;;;;;;4958849;28;20038;-50
2021/08/27 09:36:09;;;;;;;1.77;0.65;;;16.90;99.90;;;;;;4966089;28;20038;-49
2021/08/27 09:38:37;;;;;;;2.65;0.80;;;17.10;99.90;;;;;;4968709;28;20026;-53
2021/08/27 09:41:11;;;;;;;0.50;0.50;;;17.40;99.90;;;;;;4965814;28;20050;-51
2021/08/27 09:43:46;;;;;;;0.57;0.40;;;17.50;99.90;;;;;;4966072;28;20026;-50
2021/08/27 09:46:37;;;;;;;2.13;0.70;;;17.50;99.90;;;;;;4962656;28;20091;-49
2021/08/27 09:49:25;;;;;;;2.05;0.60;;;17.70;99.90;;;;;;4954768;28;20572;-48
2021/08/27 09:51:51;;;;;;;1.77;0.55;;;17.90;99.90;;;;;;4954212;28;20028;-52
2021/08/27 09:54:26;;;;;;;0.98;0.55;;;18.00;99.90;;;;;;4957347;28;20077;-51
2021/08/27 09:56:54;;;;;;;0.60;0.60;;;17.70;99.90;;;;;;4963106;28;20696;-50
2021/08/27 09:59:41;;;;;;;2.40;0.60;;;17.50;99.90;;;;;;4953868;28;20033;-49
2021/08/27 10:02:08;;;;;;;;;;;17.30;99.90;;;;;;4967931;28;20073;-47
2021/08/27 10:04:34;;;;;;;1.27;0.60;;;17.10;99.90;;;;;;4968439;28;19961;-48
2021/08/27 10:07:00;;;;;;;1.13;0.63;;;17.00;99.90;;;;;;4969340;28;20054;-51
2021/08/27 10:09:44;;;;;;;0.68;0.63;;;16.90;99.90;;;;;;4968233;28;20043;-48
2021/08/27 10:12:10;;;;;;;1.38;0.70;;;16.80;99.90;;;;;;4969065;28;20113;-47
2021/08/27 10:14:36;;;;;;;1.73;0.85;;;16.80;99.90;;;;;;4967247;28;20015;-49
2021/08/27 10:17:03;;;;;;;2.92;0.60;;;16.80;99.90;;;;;;4966997;28;20402;-50
2021/08/27 10:19:29;;;;;;;0.75;0.60;;;16.80;99.90;;;;;;4969527;28;20023;-51
2021/08/27 10:21:55;;;;;;;1.30;0.98;;;16.80;99.90;;;;;;4969102;28;20027;-51
2021/08/27 10:24:20;;;;;;;1.17;0.63;;;17.00;99.90;;;;;;4968815;28;20548;-49
2021/08/27 10:26:47;;;;;;;1.35;0.50;;;17.10;99.90;;;;;;4967570;28;20019;-51
2021/08/27 10:29:13;;;;;;;1.77;0.65;;;17.00;99.90;;;;;;4964525;28;20030;-53
2021/08/27 10:31:44;;;;;;;0.90;0.52;;;17.00;99.90;;;;;;4967566;28;20023;-50
2021/08/27 10:34:10;;;;;;;0.50;0.47;;;17.00;99.90;;;;;;4968899;28;20035;-47
2021/08/27 10:36:37;;;;;;;2.67;0.60;;;17.10;99.90;;;;;;4968472;28;20599;-50
2021/08/27 10:39:03;;;;;;;1.25;0.40;;;17.30;99.90;;;;;;4969160;28;20022;-51
2021/08/27 10:41:31;;;;;;;2.38;0.60;;;17.60;99.90;;;;;;4972796;28;20033;-48
2021/08/27 10:44:03;;;;;;;0.43;0.43;;;17.80;99.90;;;;;;4971314;28;20027;-48
2021/08/27 10:46:44;;;;;;;0.70;0.60;;;18.00;99.90;;;;;;4969452;28;20030;-51
2021/08/27 10:49:16;;;;;;;0.68;0.40;;;18.10;99.90;;;;;;4970970;28;20034;-47
2021/08/27 10:51:47;;;;;;;0.60;0.60;;;18.00;99.90;;;;;;4970852;28;20489;-47
2021/08/27 10:54:15;;;;;;;1.58;0.50;;;17.80;99.90;;;;;;4968667;28;20074;-49
2021/08/27 10:56:53;;;;;;;2.38;0.77;;;17.70;99.90;;;;;;4969148;28;20102;-46
2021/08/27 10:59:33;;;;;;;5.18;0.77;;;17.70;99.90;;;;;;4969357;28;20023;-49
2021/08/27 11:01:58;;;;;;;0.90;0.50;;;17.70;99.90;;;;;;4967161;28;20485;-49
2021/08/27 11:04:39;;;;;;;1.38;0.85;;;17.80;99.90;;;;;;4972126;28;20030;-49
2021/08/27 11:07:20;;;;;;;0.65;0.57;;;17.90;99.90;;;;;;4985254;28;20030;-48
2021/08/27 11:10:10;;;;;;;2.15;0.70;;;18.20;99.90;;;;;;4970849;28;20023;-54
2021/08/27 11:12:36;;;;;;;3.42;0.80;;;18.30;99.90;;;;;;4957065;28;20405;-50
2021/08/27 11:15:37;;;;;;;0.52;0.50;;;18.40;99.90;;;;;;4964000;28;20039;-45
2021/08/27 11:18:15;;;;;;;1.35;0.93;;;18.20;99.90;;;;;;4887991;29;20184;-47
2021/08/27 11:20:41;;;;;;;0.60;0.60;;;18.10;99.90;;;;;;4964006;28;20517;-46
2021/08/27 11:23:07;;;;;;;1.48;0.77;;;17.90;99.90;;;;;;4970574;28;20709;-47
2021/08/27 11:25:33;;;;;;;2.03;0.95;;;17.90;99.90;;;;;;4971937;28;20027;-45
2021/08/27 11:28:22;;;;;;;2.92;1.33;;;17.90;99.90;;;;;;4970128;28;20019;-46
2021/08/27 11:31:07;;;;;;;1.42;0.68;;;17.90;99.90;;;;;;4971496;28;20015;-49
2021/08/27 11:33:44;;;;;;;0.45;0.45;;;17.90;99.90;;;;;;4980932;28;20027;-52
2021/08/27 11:36:11;;;;;;;1.35;0.50;;;17.90;99.90;;;;;;4970117;28;20034;-49
2021/08/27 11:38:37;;;;;;;0.95;0.43;;;17.90;99.90;;;;;;4971670;28;20030;-52
2021/08/27 11:41:04;;;;;;;1.77;0.70;;;18.00;99.90;;;;;;4971897;28;20102;-48
2021/08/27 11:43:36;;;;;;;0.52;0.52;;;18.00;99.90;;;;;;4971386;28;20198;-51
2021/08/27 11:46:04;;;;;;;0.90;0.80;;;18.00;99.90;;;;;;4968831;28;20122;-48
2021/08/27 11:48:38;;;;;;;0.70;0.63;;;18.10;99.90;;;;;;4972000;28;20122;-55
2021/08/27 11:51:08;;;;;;;0.73;0.60;;;18.10;99.90;;;;;;4967238;28;20088;-52
2021/08/27 11:53:34;;;;;;;1.63;0.60;;;18.20;99.90;;;;;;4972544;28;20022;-48
2021/08/27 11:55:59;;;;;;;1.33;0.50;;;18.40;99.90;;;;;;4962583;28;20042;-49
2021/08/27 11:58:41;;;;;;;1.40;0.60;;;18.60;99.90;;;;;;4957378;28;20091;-50
2021/08/27 12:01:07;;;;;;;4.97;0.93;;;18.50;99.90;;;;;;4966046;28;21449;-48
2021/08/27 12:03:32;;;;;;;2.72;0.30;;;18.50;99.90;;;;;;4969709;28;20389;-48
2021/08/27 12:05:58;;;;;;;1.17;0.70;;;18.50;99.90;;;;;;4970003;28;20630;-49
2021/08/27 12:08:27;;;;;;;2.35;0.50;;;18.40;99.90;;;;;;4970639;28;20109;-50
2021/08/27 12:10:52;;;;;;;0.60;0.60;;;18.50;99.90;;;;;;4971093;28;20568;-48
2021/08/27 12:13:18;;;;;;;0.43;0.40;;;18.50;99.90;;;;;;4970038;28;20034;-47
2021/08/27 12:15:45;;;;;;;0.60;0.60;;;18.40;99.90;;;;;;4970522;28;20034;-49
2021/08/27 12:18:15;;;;;;;0.93;0.80;;;18.40;99.90;;;;;;4968956;28;20041;-48
2021/08/27 12:20:46;;;;;;;0.77;0.77;;;18.20;99.90;;;;;;4965431;28;20106;-47
2021/08/27 12:23:20;;;;;;;0.47;0.47;;;18.10;99.90;;;;;;4970921;28;20039;-51
2021/08/27 12:25:59;;;;;;;2.38;0.70;;;18.00;99.90;;;;;;4970952;28;20074;-49
2021/08/27 12:28:33;;;;;;;0.63;0.47;;;17.90;99.90;;;;;;4962537;28;20019;-50
2021/08/27 12:30:58;;;;;;;0.57;0.40;;;17.90;99.90;;;;;;4967682;28;20034;-51
2021/08/27 12:33:27;;;;;;;0.43;0.43;;;18.00;99.90;;;;;;4968889;28;20028;-50
2021/08/27 12:35:55;;;;;;;0.60;0.60;;;18.20;99.90;;;;;;4969523;28;20027;-49
2021/08/27 12:38:21;;;;;;;0.40;0.40;;;18.50;99.90;;;;;;4965963;28;20023;-49
2021/08/27 12:40:47;;;;;;;1.65;0.40;;;18.50;99.90;;;;;;4970742;28;20452;-53
2021/08/27 12:43:15;;;;;;;0.40;0.40;;;18.50;99.90;;;;;;4970484;28;20031;-54
2021/08/27 12:45:46;;;;;;;1.90;0.50;;;18.50;99.90;;;;;;4958937;28;20505;-54
2021/08/27 12:48:17;;;;;;;0.40;0.40;;;18.40;99.90;;;;;;4962551;28;20030;-49
2021/08/27 12:51:00;;;;;;;1.85;0.60;;;18.40;99.90;;;;;;4969977;28;20022;-50
2021/08/27 12:53:46;;;;;;;0.40;0.40;;;18.30;99.90;;;;;;4969811;28;20453;-50
2021/08/27 12:56:19;;;;;;;1.30;0.35;;;18.30;99.90;;;;;;4969884;28;20509;-50